Time;durP1;ratioP1;P1;durP2;ratioP2;P2;SDS_P1;SDS_P2;PMS_P1;PMS_P2;Temp;Humidity;BMP_temperature;BMP_pressure;BME280_temperature;BME280_humidity;BME280_pressure;Samples;Min_cycle;Max_cycle;Signal;HPM_P1;HPM_P2
2023/11/24 00:01:48;;;;;;;3.28;2.00;;;;;;;7.59;100.00;98639.59;5052110;28;20064;-81
2023/11/24 00:04:13;;;;;;;7.40;2.10;;;;;;;7.41;100.00;98605.03;5051764;28;20334;-80
2023/11/24 00:06:38;;;;;;;4.22;2.30;;;;;;;7.28;100.00;98583.31;5049221;28;20285;-78
2023/11/24 00:09:04;;;;;;;5.25;2.35;;;;;;;7.45;100.00;98589.34;5043699;28;20070;-80
2023/11/24 00:11:29;;;;;;;3.85;2.00;;;;;;;7.67;100.00;98631.41;5047434;28;20022;-78
2023/11/24 00:13:55;;;;;;;2.80;1.85;;;;;;;7.73;100.00;98637.06;5048349;28;20037;-78
2023/11/24 00:16:20;;;;;;;6.70;2.00;;;;;;;7.38;100.00;98551.56;5051632;28;20021;-80
2023/11/24 00:18:46;;;;;;;4.38;1.70;;;;;;;7.87;100.00;98623.56;5051284;28;20021;-80
2023/11/24 00:21:12;;;;;;;5.35;1.73;;;;;;;7.71;100.00;98598.75;5051124;28;20032;-79
2023/11/24 00:23:37;;;;;;;5.15;2.03;;;;;;;7.59;100.00;98564.22;5032043;28;20025;-80
2023/11/24 00:26:06;;;;;;;4.43;1.90;;;;;;;7.49;100.00;98536.78;5051016;28;20025;-80
2023/11/24 00:28:33;;;;;;;2.10;1.55;;;;;;;7.60;100.00;98544.38;5050326;28;20029;-81
2023/11/24 00:30:59;;;;;;;4.35;1.63;;;;;;;7.73;100.00;98548.22;5047616;28;20036;-79
2023/11/24 00:33:26;;;;;;;2.42;1.58;;;;;;;7.69;100.00;98529.75;5052723;28;20120;-80
2023/11/24 00:35:52;;;;;;;3.92;1.50;;;;;;;7.83;100.00;98548.72;5051000;28;20449;-81
2023/11/24 00:38:17;;;;;;;2.38;1.30;;;;;;;8.01;100.00;98551.81;5047076;28;20025;-80
2023/11/24 00:40:43;;;;;;;4.05;1.55;;;;;;;7.82;100.00;98520.97;5050539;28;20036;-78
2023/11/24 00:43:08;;;;;;;4.10;1.77;;;;;;;7.79;100.00;98497.13;5051370;28;20036;-82
2023/11/24 00:45:34;;;;;;;1.80;1.02;;;;;;;7.96;100.00;98532.69;5049268;28;20029;-81
2023/11/24 00:47:59;;;;;;;2.67;1.17;;;;;;;8.31;100.00;98549.81;5051309;28;20388;-80
2023/11/24 00:50:25;;;;;;;2.33;1.05;;;;;;;8.22;100.00;98539.34;5064053;22;20063;-78
2023/11/24 00:52:50;;;;;;;1.60;1.10;;;;;;;8.26;100.00;98532.56;5061748;28;20055;-77
2023/11/24 00:55:16;;;;;;;5.22;1.20;;;;;;;8.30;100.00;98528.44;5048235;28;20013;-77
2023/11/24 00:57:41;;;;;;;2.58;1.10;;;;;;;8.33;100.00;98534.28;5040808;28;20025;-77
2023/11/24 01:00:08;;;;;;;1.27;0.82;;;;;;;8.35;100.00;98532.19;5069796;28;20071;-77
2023/11/24 01:02:37;;;;;;;1.23;0.80;;;;;;;8.30;100.00;98515.78;5044541;28;20033;-77
2023/11/24 01:05:03;;;;;;;1.87;0.90;;;;;;;8.45;100.00;98523.81;5043096;28;20266;-76
2023/11/24 01:07:29;;;;;;;1.85;0.95;;;;;;;8.43;100.00;98527.72;5043565;28;20245;-77
2023/11/24 01:09:55;;;;;;;3.47;1.27;;;;;;;8.38;100.00;98533.66;5042676;28;20019;-77
2023/11/24 01:12:20;;;;;;;2.42;0.85;;;;;;;8.43;100.00;98520.47;5043558;28;20022;-77
2023/11/24 01:14:46;;;;;;;2.55;0.82;;;;;;;8.50;100.00;98531.31;5043128;28;20056;-77
2023/11/24 01:17:11;;;;;;;3.42;1.00;;;;;;;8.46;100.00;98536.28;5044361;28;20356;-77
2023/11/24 01:19:37;;;;;;;1.90;1.05;;;;;;;8.46;100.00;98528.19;5036156;28;20055;-77
2023/11/24 01:22:03;;;;;;;2.65;0.90;;;;;;;8.53;100.00;98534.44;5044932;28;20092;-76
2023/11/24 01:24:28;;;;;;;1.88;0.98;;;;;;;8.50;100.00;98517.84;5043116;28;20028;-77
2023/11/24 01:26:54;;;;;;;3.72;0.85;;;;;;;8.58;100.00;98522.25;5043359;28;20021;-77
2023/11/24 01:29:20;;;;;;;1.55;1.05;;;;;;;8.51;100.00;98506.84;5042930;28;20017;-76
2023/11/24 01:31:45;;;;;;;1.30;0.80;;;;;;;8.54;100.00;98530.72;5044308;28;20029;-77
2023/11/24 01:34:10;;;;;;;1.27;0.80;;;;;;;8.53;100.00;98518.25;5041670;28;20021;-77
2023/11/24 01:36:36;;;;;;;1.33;0.73;;;;;;;8.53;100.00;98512.88;5044018;28;20047;-77
2023/11/24 01:39:03;;;;;;;1.13;0.82;;;;;;;8.53;100.00;98517.44;5043698;28;20089;-76
2023/11/24 01:41:29;;;;;;;1.38;0.90;;;;;;;8.54;100.00;98484.88;5044597;28;20063;-77
2023/11/24 01:44:01;;;;;;;2.22;1.00;;;;;;;8.56;100.00;98512.47;5040148;28;20080;-76
2023/11/24 01:46:26;;;;;;;2.05;1.08;;;;;;;8.48;100.00;98512.63;5040725;28;20273;-77
2023/11/24 01:48:52;;;;;;;2.25;1.08;;;;;;;8.34;100.00;98486.59;5044540;28;20025;-77
2023/11/24 01:51:18;;;;;;;1.20;0.80;;;;;;;8.42;100.00;98509.91;5045421;28;20067;-77
2023/11/24 01:53:43;;;;;;;2.53;0.98;;;;;;;8.39;100.00;98518.34;5044137;28;20033;-77
2023/11/24 01:56:10;;;;;;;1.52;1.02;;;;;;;8.39;100.00;98507.56;5046858;28;20021;-77
2023/11/24 01:58:36;;;;;;;1.10;0.90;;;;;;;8.29;100.00;98495.25;5046635;28;20253;-77
2023/11/24 02:01:01;;;;;;;1.80;0.88;;;;;;;8.33;100.00;98501.94;5043935;28;20017;-76
2023/11/24 02:03:27;;;;;;;2.13;0.90;;;;;;;8.28;100.00;98504.38;5039495;28;20053;-77
2023/11/24 02:05:53;;;;;;;2.03;1.10;;;;;;;8.18;100.00;98497.66;5041510;28;20017;-77
2023/11/24 02:08:19;;;;;;;1.42;0.85;;;;;;;8.23;100.00;98511.38;5044490;28;20331;-77
2023/11/24 02:10:45;;;;;;;1.70;1.10;;;;;;;8.14;100.00;98499.91;5046232;28;20021;-77
2023/11/24 02:13:10;;;;;;;1.67;1.00;;;;;;;8.17;100.00;98502.19;5046624;28;20033;-76
2023/11/24 02:15:35;;;;;;;1.85;1.10;;;;;;;8.23;100.00;98516.78;5046540;28;20364;-77
2023/11/24 02:18:01;;;;;;;2.13;1.10;;;;;;;8.15;100.00;98508.81;5047992;28;20034;-78
2023/11/24 02:20:27;;;;;;;2.17;1.27;;;;;;;8.09;100.00;98511.25;5055504;28;20030;-77
2023/11/24 02:22:52;;;;;;;2.40;1.20;;;;;;;8.00;100.00;98512.44;5057151;28;20013;-77
2023/11/24 02:25:17;;;;;;;1.65;1.15;;;;;;;7.96;100.00;98507.63;5051452;28;20018;-78
2023/11/24 02:27:43;;;;;;;2.90;1.38;;;;;;;7.81;100.00;98473.53;5052465;28;20017;-77
2023/11/24 02:30:11;;;;;;;2.65;1.38;;;;;;;7.87;100.00;98498.84;5055642;28;20081;-78
2023/11/24 02:32:36;;;;;;;2.08;1.33;;;;;;;7.85;100.00;98492.81;5055086;28;20084;-76
2023/11/24 02:35:02;;;;;;;1.92;1.20;;;;;;;7.88;100.00;98492.44;5057478;28;20044;-78
2023/11/24 02:37:28;;;;;;;1.95;1.10;;;;;;;7.91;100.00;98467.78;5059025;28;20040;-77
2023/11/24 02:39:53;;;;;;;2.83;1.10;;;;;;;7.86;100.00;98467.56;5059906;28;20021;-78
2023/11/24 02:42:18;;;;;;;2.47;1.30;;;;;;;7.90;100.00;98448.13;5059588;28;20020;-78
2023/11/24 02:44:44;;;;;;;1.95;1.17;;;;;;;7.93;100.00;98457.66;5052008;28;20034;-77
2023/11/24 02:47:10;;;;;;;2.72;1.20;;;;;;;7.87;100.00;98435.03;5046196;28;20033;-77
2023/11/24 02:49:36;;;;;;;2.22;1.00;;;;;;;7.88;100.00;98419.72;5038096;28;20024;-77
2023/11/24 02:52:02;;;;;;;3.00;1.13;;;;;;;7.96;100.00;98434.88;5048049;28;20023;-77
2023/11/24 02:54:28;;;;;;;1.40;0.90;;;;;;;7.94;100.00;98436.94;5045401;28;20104;-77
2023/11/24 02:56:54;;;;;;;2.28;1.23;;;;;;;7.94;100.00;98437.81;5046704;28;20049;-77
2023/11/24 02:59:19;;;;;;;1.85;1.27;;;;;;;8.04;100.00;98441.00;5045633;28;20025;-77
2023/11/24 03:01:45;;;;;;;2.53;1.13;;;;;;;8.03;100.00;98442.00;5044806;28;20088;-77
2023/11/24 03:04:10;;;;;;;2.10;1.08;;;;;;;8.14;100.00;98429.84;5047731;28;20334;-77
2023/11/24 03:06:40;;;;;;;2.75;1.45;;;;;;;8.15;100.00;98431.53;5039069;28;20350;-77
2023/11/24 03:09:06;;;;;;;1.70;1.10;;;;;;;8.15;100.00;98425.28;5042819;28;20029;-77
2023/11/24 03:11:32;;;;;;;1.33;0.77;;;;;;;8.12;100.00;98418.41;5045561;28;20322;-77
2023/11/24 03:13:57;;;;;;;1.90;1.10;;;;;;;8.11;100.00;98419.47;5045881;28;20087;-77
2023/11/24 03:16:22;;;;;;;1.80;1.10;;;;;;;8.08;100.00;98411.78;5049704;28;20025;-77
2023/11/24 03:18:48;;;;;;;2.05;1.05;;;;;;;8.12;100.00;98416.59;5045028;28;20093;-77
2023/11/24 03:21:13;;;;;;;2.75;1.20;;;;;;;8.20;100.00;98414.75;5046786;28;20052;-77
2023/11/24 03:23:39;;;;;;;1.85;0.82;;;;;;;8.24;100.00;98413.34;5047246;28;20045;-77
2023/11/24 03:26:09;;;;;;;1.80;0.80;;;;;;;8.27;100.00;98410.22;5046936;28;20009;-77
2023/11/24 03:28:34;;;;;;;1.80;1.02;;;;;;;8.19;100.00;98397.75;5043929;28;20071;-77
2023/11/24 03:30:59;;;;;;;1.38;0.88;;;;;;;8.21;100.00;98395.69;5047458;28;20021;-77
2023/11/24 03:33:24;;;;;;;1.60;1.00;;;;;;;8.27;100.00;98399.44;5048166;28;20072;-77
2023/11/24 03:35:50;;;;;;;2.67;0.85;;;;;;;8.25;100.00;98402.38;5045304;28;20076;-77
2023/11/24 03:38:15;;;;;;;1.80;0.85;;;;;;;8.33;100.00;98404.91;5046589;28;20033;-77
2023/11/24 03:40:40;;;;;;;1.25;0.75;;;;;;;8.25;100.00;98390.72;5045053;28;20107;-77
2023/11/24 03:43:06;;;;;;;1.27;0.80;;;;;;;8.33;100.00;98390.56;5046735;28;20037;-77
2023/11/24 03:45:31;;;;;;;0.82;0.60;;;;;;;8.32;100.00;98383.53;5046251;28;20049;-77
2023/11/24 03:47:56;;;;;;;0.95;0.65;;;;;;;8.40;100.00;98387.94;5044218;28;20021;-77
2023/11/24 03:50:22;;;;;;;0.70;0.55;;;;;;;8.41;100.00;98389.59;5043185;28;20032;-77
2023/11/24 03:52:48;;;;;;;1.13;0.70;;;;;;;8.38;100.00;98384.59;5045322;28;20040;-77
2023/11/24 03:55:13;;;;;;;1.83;0.75;;;;;;;8.46;100.00;98381.75;5045961;28;20092;-76
2023/11/24 03:57:39;;;;;;;1.23;0.68;;;;;;;8.47;100.00;98395.03;5043590;28;20231;-77
2023/11/24 04:00:06;;;;;;;1.33;0.60;;;;;;;8.41;100.00;98386.91;5044475;28;20025;-77
2023/11/24 04:02:32;;;;;;;1.17;0.73;;;;;;;8.42;100.00;98392.09;5025583;28;20314;-77
2023/11/24 04:04:57;;;;;;;1.40;0.98;;;;;;;8.46;100.00;98379.06;5044659;28;20070;-78
2023/11/24 04:07:22;;;;;;;0.80;0.50;;;;;;;8.46;100.00;98385.31;5045805;28;20033;-78
2023/11/24 04:09:48;;;;;;;1.45;0.70;;;;;;;8.45;100.00;98390.88;5047318;28;20040;-75
2023/11/24 04:12:13;;;;;;;1.42;0.65;;;;;;;8.47;100.00;98384.25;5045315;28;20346;-77
2023/11/24 04:14:38;;;;;;;1.30;0.50;;;;;;;8.42;100.00;98391.28;5042166;28;20036;-75
2023/11/24 04:17:07;;;;;;;1.55;0.70;;;;;;;8.43;100.00;98407.25;5051367;28;20062;-76
2023/11/24 04:19:32;;;;;;;5.57;0.68;;;;;;;8.40;100.00;98407.66;5038319;28;20342;-76
2023/11/24 04:21:58;;;;;;;0.88;0.50;;;;;;;8.33;100.00;98406.72;5040665;28;20026;-75
2023/11/24 04:24:23;;;;;;;1.15;0.65;;;;;;;8.24;100.00;98411.47;5042614;28;20067;-76
2023/11/24 04:26:48;;;;;;;0.63;0.50;;;;;;;8.22;100.00;98420.78;5043823;28;20017;-79
2023/11/24 04:29:15;;;;;;;1.30;0.70;;;;;;;8.17;100.00;98409.75;5043554;28;20099;-79
2023/11/24 04:31:54;;;;;;;3.25;0.52;;;;;;;7.96;100.00;98398.00;5050658;28;20047;-80
2023/11/24 04:34:21;;;;;;;0.30;0.30;;;;;;;7.79;100.00;98396.66;5047671;28;20029;-80
2023/11/24 04:36:47;;;;;;;1.30;0.45;;;;;;;7.92;100.00;98461.41;5042530;28;20029;-80
2023/11/24 04:39:15;;;;;;;2.47;0.70;;;;;;;7.73;100.00;98437.81;5040238;28;20021;-78
2023/11/24 04:41:56;;;;;;;1.27;0.60;;;;;;;7.71;100.00;98456.03;5039253;28;20029;-79
2023/11/24 04:44:21;;;;;;;5.00;1.23;;;;;;;7.59;100.00;98443.06;5046852;28;20013;-80
2023/11/24 04:46:47;;;;;;;1.60;0.73;;;;;;;7.37;100.00;98414.50;5046110;28;20030;-80
2023/11/24 04:49:12;;;;;;;1.50;0.63;;;;;;;7.37;100.00;98423.41;5055003;28;20021;-80
2023/11/24 04:51:37;;;;;;;3.42;0.82;;;;;;;7.41;100.00;98442.69;5043044;28;20026;-79
2023/11/24 04:54:03;;;;;;;3.95;0.82;;;;;;;7.29;100.00;98433.47;5042211;28;20271;-78
2023/11/24 04:56:29;;;;;;;5.60;0.93;;;;;;;7.16;100.00;98424.25;5048243;28;20081;-79
2023/11/24 04:58:56;;;;;;;3.70;1.20;;;;;;;7.03;100.00;98410.66;5044037;28;20997;-78
2023/11/24 05:01:22;;;;;;;6.95;1.10;;;;;;;7.11;100.00;98431.22;5045286;28;20037;-77
2023/11/24 05:03:50;;;;;;;3.38;1.30;;;;;;;7.02;100.00;98427.78;5040111;28;20037;-76
2023/11/24 05:06:16;;;;;;;8.55;1.40;;;;;;;7.00;100.00;98429.88;5043258;28;20024;-79
2023/11/24 05:08:57;;;;;;;3.80;0.85;;;;;;;7.02;100.00;98427.78;5042240;28;20025;-80
2023/11/24 05:11:22;;;;;;;5.75;1.70;;;;;;;6.85;100.00;98400.31;5044936;28;20140;-80
2023/11/24 05:13:49;;;;;;;6.43;1.70;;;;;;;6.92;100.00;98401.22;5047299;28;20030;-80
2023/11/24 05:19:36;;;;;;;7.07;1.60;;;;;;;6.85;100.00;98396.78;5043949;28;20231;-79
2023/11/24 05:22:01;;;;;;;6.85;1.05;;;;;;;6.85;100.00;98394.94;5041881;28;20017;-79
2023/11/24 05:24:27;;;;;;;6.20;1.08;;;;;;;6.74;100.00;98377.44;5051133;28;20028;-78
2023/11/24 05:26:53;;;;;;;7.97;1.80;;;;;;;6.72;100.00;98378.66;5055508;28;20361;-79
2023/11/24 05:29:19;;;;;;;6.10;1.10;;;;;;;6.80;100.00;98379.34;5045084;28;20029;-80
2023/11/24 05:31:44;;;;;;;5.43;1.20;;;;;;;6.74;100.00;98371.25;5041968;28;20033;-79
2023/11/24 05:34:09;;;;;;;6.78;1.00;;;;;;;6.76;100.00;98367.34;5044513;28;20029;-78
2023/11/24 05:36:35;;;;;;;4.75;1.00;;;;;;;6.76;100.00;98370.03;5043113;28;20096;-79
2023/11/24 05:39:00;;;;;;;5.45;1.00;;;;;;;6.78;100.00;98362.56;5043263;28;20029;-80
2023/11/24 05:41:26;;;;;;;6.65;1.02;;;;;;;6.69;100.00;98350.28;5042073;28;20112;-78
2023/11/24 05:43:53;;;;;;;7.53;1.20;;;;;;;6.66;100.00;98349.84;5041714;28;20025;-78
2023/11/24 05:46:18;;;;;;;7.30;1.23;;;;;;;6.74;100.00;98358.63;5037402;28;20021;-78
2023/11/24 05:48:43;;;;;;;6.90;1.20;;;;;;;6.68;100.00;98370.13;5042153;28;20092;-80
2023/11/24 05:51:09;;;;;;;10.88;1.45;;;;;;;6.58;100.00;98350.78;5042616;28;20101;-78
2023/11/24 05:53:34;;;;;;;7.82;1.02;;;;;;;6.68;100.00;98377.34;5042304;28;20022;-77
2023/11/24 05:56:00;;;;;;;9.00;1.33;;;;;;;6.61;100.00;98369.22;5041142;28;20025;-76
2023/11/24 05:58:25;;;;;;;5.10;1.40;;;;;;;6.59;100.00;98363.19;5045706;28;20064;-76
2023/11/24 06:00:51;;;;;;;7.50;1.20;;;;;;;6.56;100.00;98355.50;5042074;28;20041;-75
2023/11/24 06:03:16;;;;;;;14.10;1.10;;;;;;;6.55;100.00;98352.00;5034107;28;20089;-77
2023/11/24 06:05:41;;;;;;;7.70;0.80;;;;;;;6.57;100.00;98357.16;5047810;28;20025;-76
2023/11/24 06:08:07;;;;;;;7.13;1.00;;;;;;;6.51;100.00;98350.69;5040619;28;20025;-76
2023/11/24 06:10:33;;;;;;;7.40;1.05;;;;;;;6.52;100.00;98355.06;5043195;28;20029;-76
2023/11/24 06:12:58;;;;;;;8.55;0.98;;;;;;;6.52;100.00;98356.91;5043342;28;20261;-72
2023/11/24 06:15:57;;;;;;;10.73;1.38;;;;;;;6.49;100.00;98358.09;5050888;28;20048;-79
2023/11/24 06:18:24;;;;;;;6.65;1.05;;;;;;;6.44;100.00;98338.19;5040676;28;20034;-76
2023/11/24 06:20:49;;;;;;;8.68;0.93;;;;;;;6.46;100.00;98338.84;5046464;28;20072;-78
2023/11/24 06:23:15;;;;;;;13.13;1.45;;;;;;;6.48;100.00;98339.50;5044414;28;20092;-76
2023/11/24 06:25:40;;;;;;;6.15;1.00;;;;;;;6.39;100.00;98330.69;5043163;28;20026;-76
2023/11/24 06:28:05;;;;;;;4.32;1.27;;;;;;;6.34;100.00;98325.06;5044815;28;20026;-76
2023/11/24 06:30:31;;;;;;;9.73;1.10;;;;;;;6.45;100.00;98337.19;5046583;28;20029;-75
2023/11/24 06:32:57;;;;;;;8.32;1.38;;;;;;;6.43;100.00;98336.56;5045910;28;20025;-76
2023/11/24 06:35:22;;;;;;;6.28;0.98;;;;;;;6.43;100.00;98348.13;5046525;28;20040;-73
2023/11/24 06:37:47;;;;;;;16.27;1.55;;;;;;;6.40;100.00;98348.50;5042812;28;20026;-73
2023/11/24 06:40:13;;;;;;;11.75;1.30;;;;;;;6.41;100.00;98349.31;5041789;28;20026;-73
2023/11/24 06:42:40;;;;;;;10.35;1.95;;;;;;;6.42;100.00;98350.97;5043303;28;20306;-73
2023/11/24 06:45:08;;;;;;;7.38;1.00;;;;;;;6.48;100.00;98355.63;5049397;28;20028;-73
2023/11/24 06:47:33;;;;;;;6.50;0.98;;;;;;;6.50;100.00;98343.66;5042541;28;20067;-73
2023/11/24 06:49:58;;;;;;;10.05;1.20;;;;;;;6.50;100.00;98353.59;5039214;28;20021;-73
2023/11/24 06:52:23;;;;;;;6.30;1.52;;;;;;;6.43;100.00;98337.38;5048364;22;20056;-77
2023/11/24 06:54:49;;;;;;;7.18;1.15;;;;;;;6.46;100.00;98330.78;5028634;28;20036;-82
2023/11/24 06:57:16;;;;;;;8.32;1.25;;;;;;;6.44;100.00;98330.13;5035573;28;20037;-75
2023/11/24 06:59:42;;;;;;;9.52;2.25;;;;;;;6.51;100.00;98320.31;5041423;28;20071;-76
2023/11/24 07:02:07;;;;;;;7.57;1.17;;;;;;;6.52;100.00;98325.50;5038322;28;20025;-80
2023/11/24 07:04:33;;;;;;;5.50;1.30;;;;;;;6.59;100.00;98330.94;5027991;28;20025;-77
2023/11/24 07:06:58;;;;;;;3.78;1.17;;;;;;;6.50;100.00;98319.47;5027751;28;20096;-80
2023/11/24 07:09:24;;;;;;;5.25;1.05;;;;;;;6.64;100.00;98330.38;5040134;28;20344;-75
2023/11/24 07:11:50;;;;;;;8.35;1.20;;;;;;;6.64;100.00;98327.69;5027529;28;20030;-77
2023/11/24 07:14:16;;;;;;;8.10;1.30;;;;;;;6.62;100.00;98295.63;5027520;28;20025;-76
2023/11/24 07:16:41;;;;;;;5.40;0.90;;;;;;;6.74;100.00;98318.28;5047952;28;20025;-79
2023/11/24 07:19:07;;;;;;;10.25;1.45;;;;;;;6.83;100.00;98315.47;5023765;28;20080;-75
2023/11/24 07:21:34;;;;;;;9.48;1.30;;;;;;;6.80;100.00;98306.75;5039727;28;20146;-78
2023/11/24 07:24:00;;;;;;;6.63;1.20;;;;;;;6.88;100.00;98313.06;5028852;28;20218;-79
2023/11/24 07:26:26;;;;;;;7.30;1.02;;;;;;;6.88;100.00;98308.50;5027427;28;20021;-76
2023/11/24 07:28:51;;;;;;;6.60;1.83;;;;;;;6.98;100.00;98330.53;5044314;28;20326;-77
2023/11/24 07:31:17;;;;;;;11.77;1.70;;;;;;;6.96;100.00;98310.22;5026078;28;20028;-74
2023/11/24 07:33:48;;;;;;;5.32;1.60;;;;;;;7.06;100.00;98326.88;5040943;28;20261;-75
2023/11/24 07:36:18;;;;;;;7.40;1.25;;;;;;;6.97;100.00;98311.91;5044523;28;20040;-75
2023/11/24 07:38:44;;;;;;;3.85;0.93;;;;;;;6.93;100.00;98308.75;5028052;28;20021;-78
2023/11/24 07:41:10;;;;;;;9.05;1.30;;;;;;;6.93;100.00;98289.09;5026846;28;20326;-73
2023/11/24 07:43:36;;;;;;;7.32;1.10;;;;;;;7.15;100.00;98323.03;5026542;28;20082;-75
2023/11/24 07:46:06;;;;;;;4.28;1.15;;;;;;;7.12;100.00;98309.97;5049735;28;20048;-75
2023/11/24 07:48:33;;;;;;;7.30;1.52;;;;;;;7.17;100.00;98309.38;5027035;28;20025;-76
2023/11/24 07:50:58;;;;;;;4.00;0.80;;;;;;;7.16;100.00;98303.19;5042026;28;20060;-75
2023/11/24 07:53:24;;;;;;;9.13;1.20;;;;;;;7.13;100.00;98279.34;5029779;28;20052;-75
2023/11/24 07:55:49;;;;;;;6.35;1.08;;;;;;;7.17;100.00;98280.63;5043672;28;20413;-75
2023/11/24 07:58:14;;;;;;;4.63;1.05;;;;;;;7.28;100.00;98273.03;5044233;28;20083;-77
2023/11/24 08:00:40;;;;;;;2.63;1.13;;;;;;;7.30;100.00;98252.16;5031618;28;20032;-76
2023/11/24 08:03:05;;;;;;;7.05;0.98;;;;;;;7.48;100.00;98255.19;5026388;28;20318;-74
2023/11/24 08:05:30;;;;;;;6.72;1.33;;;;;;;7.60;100.00;98259.00;5042035;28;20071;-77
2023/11/24 08:07:57;;;;;;;3.13;0.68;;;;;;;7.56;100.00;98252.34;5017923;28;20018;-76
2023/11/24 08:10:23;;;;;;;6.10;1.20;;;;;;;7.50;100.00;98263.91;5026444;28;20025;-77
2023/11/24 08:12:48;;;;;;;9.07;1.63;;;;;;;7.45;100.00;98255.59;5026645;28;20017;-75
2023/11/24 08:15:13;;;;;;;8.13;2.40;;;;;;;7.40;100.00;98271.50;5044128;28;20063;-73
2023/11/24 08:17:39;;;;;;;6.50;1.90;;;;;;;7.38;100.00;98262.78;5043858;28;20260;-73
2023/11/24 08:20:11;;;;;;;8.85;1.90;;;;;;;7.23;100.00;98261.03;5043561;28;20025;-76
2023/11/24 08:22:37;;;;;;;7.47;1.75;;;;;;;7.29;100.00;98258.59;5038387;28;20039;-75
2023/11/24 08:25:03;;;;;;;7.32;1.80;;;;;;;7.15;100.00;98231.59;5014238;28;20231;-75
2023/11/24 08:27:29;;;;;;;4.68;0.98;;;;;;;7.28;100.00;98246.13;5028868;28;20036;-72
2023/11/24 08:29:54;;;;;;;9.32;1.80;;;;;;;7.30;100.00;98253.00;5043380;28;20029;-75
2023/11/24 08:32:19;;;;;;;4.97;1.23;;;;;;;7.38;100.00;98278.91;5045256;28;20029;-78
2023/11/24 08:34:45;;;;;;;8.30;1.70;;;;;;;7.19;100.00;98251.66;5026034;28;20079;-73
2023/11/24 08:37:10;;;;;;;7.22;1.35;;;;;;;7.07;100.00;98229.00;5043959;28;20032;-73
2023/11/24 08:39:35;;;;;;;7.47;1.13;;;;;;;7.27;100.00;98248.00;5026158;28;20285;-75
2023/11/24 08:42:01;;;;;;;8.30;2.00;;;;;;;7.22;100.00;98232.44;5024865;28;20050;-75
2023/11/24 08:44:27;;;;;;;6.55;1.38;;;;;;;7.29;100.00;98229.81;5022980;28;20021;-75
2023/11/24 08:46:53;;;;;;;5.05;1.05;;;;;;;7.38;100.00;98254.69;5036412;28;20092;-74
2023/11/24 08:49:18;;;;;;;9.05;1.02;;;;;;;7.38;100.00;98246.63;5047513;28;20032;-74
2023/11/24 08:51:44;;;;;;;5.72;1.25;;;;;;;7.37;100.00;98244.97;5045623;28;20095;-75
2023/11/24 08:54:10;;;;;;;7.10;0.90;;;;;;;7.21;100.00;98252.31;5028926;28;20091;-71
2023/11/24 08:56:35;;;;;;;7.38;1.42;;;;;;;6.89;100.00;98240.25;5055824;28;20040;-84
2023/11/24 08:59:03;;;;;;;3.10;0.65;;;;;;;6.78;100.00;98241.59;5039725;28;20028;-77
2023/11/24 09:01:28;;;;;;;5.05;0.80;;;;;;;6.71;100.00;98224.59;5056190;28;20084;-83
2023/11/24 09:03:54;;;;;;;7.05;1.10;;;;;;;6.65;100.00;98200.31;5054880;28;20036;-85
2023/11/24 09:06:31;;;;;;;5.85;1.02;;;;;;;6.59;100.00;98218.88;5036708;28;20025;-79
2023/11/24 09:08:58;;;;;;;6.57;0.70;;;;;;;6.65;100.00;98233.41;5048229;28;20088;-78
2023/11/24 09:11:24;;;;;;;4.57;1.00;;;;;;;6.62;100.00;98220.34;5047269;28;20253;-73
2023/11/24 09:13:51;;;;;;;7.60;1.10;;;;;;;6.57;100.00;98207.50;5047063;28;20025;-73
2023/11/24 09:16:17;;;;;;;9.25;0.90;;;;;;;6.69;100.00;98223.13;5046635;28;20036;-74
2023/11/24 09:18:43;;;;;;;6.75;1.15;;;;;;;6.72;100.00;98201.22;5048932;28;20021;-74
2023/11/24 09:21:09;;;;;;;7.07;1.30;;;;;;;7.06;100.00;98224.66;5054423;28;20048;-75
2023/11/24 09:23:35;;;;;;;10.30;1.38;;;;;;;7.42;100.00;98194.09;5045986;28;20100;-75
2023/11/24 09:26:01;;;;;;;3.17;0.90;;;;;;;7.72;100.00;98201.91;5045035;28;20032;-75
2023/11/24 09:28:28;;;;;;;9.43;1.00;;;;;;;7.93;100.00;98182.09;5026425;28;20025;-73
2023/11/24 09:30:55;;;;;;;9.60;1.15;;;;;;;8.52;100.00;98187.69;5026793;28;20033;-78
2023/11/24 09:33:20;;;;;;;4.03;0.52;;;;;;;9.17;100.00;98189.78;5026560;28;20021;-73
2023/11/24 09:35:46;;;;;;;6.53;1.58;;;;;;;9.86;100.00;98164.84;5036443;28;20049;-74
2023/11/24 09:38:11;;;;;;;15.52;4.20;;;;;;;9.77;100.00;98154.50;5025604;28;20254;-75
2023/11/24 09:40:37;;;;;;;7.88;1.73;;;;;;;9.38;100.00;98138.22;5044722;28;20036;-76
2023/11/24 09:43:03;;;;;;;8.00;1.45;;;;;;;9.33;100.00;98154.22;5027236;28;20025;-78
2023/11/24 09:45:30;;;;;;;5.45;1.08;;;;;;;8.93;100.00;98130.03;5027448;28;20088;-77
2023/11/24 09:47:56;;;;;;;5.68;1.20;;;;;;;8.38;100.00;98123.94;5021502;28;20029;-79
2023/11/24 09:50:26;;;;;;;5.28;1.27;;;;;;;8.42;100.00;98164.84;5027526;28;20060;-78
2023/11/24 09:52:56;;;;;;;6.07;1.27;;;;;;;8.05;100.00;98154.38;5025632;28;20029;-78
2023/11/24 09:55:23;;;;;;;4.40;0.85;;;;;;;7.97;100.00;98167.22;5020312;28;20029;-78
2023/11/24 09:57:51;;;;;;;3.70;1.55;;;;;;;7.66;100.00;98157.75;5044222;28;20033;-78
2023/11/24 10:00:19;;;;;;;7.07;1.52;;;;;;;7.32;100.00;98150.56;5025680;28;20319;-78
2023/11/24 10:02:46;;;;;;;6.05;1.10;;;;;;;7.03;100.00;98125.56;5025724;28;20092;-78
2023/11/24 10:05:18;;;;;;;7.65;1.23;;;;;;;7.24;100.00;98119.25;5026416;28;20021;-78
2023/11/24 10:07:50;;;;;;;3.80;0.98;;;;;;;7.44;100.00;98128.28;5025647;28;20361;-75
2023/11/24 10:10:22;;;;;;;7.60;1.10;;;;;;;7.47;100.00;98119.78;5014250;28;20018;-78
2023/11/24 10:12:47;;;;;;;7.57;1.00;;;;;;;7.51;100.00;98097.84;5037448;28;20082;-75
2023/11/24 10:15:14;;;;;;;8.65;1.48;;;;;;;7.51;100.00;98117.50;5025785;28;20021;-76
2023/11/24 10:17:42;;;;;;;8.73;1.40;;;;;;;6.96;100.00;98097.78;5019804;28;20245;-78
2023/11/24 10:20:11;;;;;;;9.57;1.33;;;;;;;6.82;100.00;98087.97;5032496;28;20109;-77
2023/11/24 10:22:37;;;;;;;5.75;1.30;;;;;;;7.06;100.00;98111.69;5029900;28;20028;-70
2023/11/24 10:25:18;;;;;;;4.22;1.50;;;;;;;7.53;100.00;98134.31;5041962;28;20041;-70
2023/11/24 10:27:43;;;;;;;3.17;0.60;;;;;;;7.17;100.00;98121.06;5022893;28;20105;-70
2023/11/24 10:30:12;;;;;;;1.80;0.77;;;;;;;6.79;100.00;98116.91;5039148;28;20030;-70
2023/11/24 10:32:39;;;;;;;1.77;0.50;;;;;;;6.50;100.00;98109.88;5040566;28;20033;-70
2023/11/24 10:35:07;;;;;;;1.85;0.40;;;;;;;6.24;100.00;98096.22;5045275;28;20039;-70
2023/11/24 10:37:34;;;;;;;2.10;0.40;;;;;;;6.01;100.00;98094.56;5049155;28;20027;-70
2023/11/24 10:40:03;;;;;;;5.13;0.30;;;;;;;5.86;100.00;98102.63;5031826;28;20845;-71
2023/11/24 10:42:32;;;;;;;5.78;0.63;;;;;;;5.81;100.00;98099.66;5038845;28;20131;-72
2023/11/24 10:45:04;;;;;;;2.35;0.50;;;;;;;5.68;100.00;98107.59;5042062;28;20017;-71
2023/11/24 10:47:36;;;;;;;3.95;0.40;;;;;;;5.65;100.00;98095.38;5041468;28;20044;-71
2023/11/24 10:50:16;;;;;;;2.65;0.30;;;;;;;5.71;100.00;98081.22;5039648;28;20128;-72
2023/11/24 10:53:07;;;;;;;2.83;0.40;;;;;;;5.79;100.00;98071.34;5020947;28;20029;-72
2023/11/24 10:55:34;;;;;;;1.77;0.50;;;;;;;6.13;100.00;98084.09;5025990;28;20242;-70
2023/11/24 10:58:01;;;;;;;2.60;0.60;;;;;;;6.10;100.00;98063.00;5020420;28;20021;-70
2023/11/24 11:00:28;;;;;;;1.90;0.40;;;;;;;6.14;100.00;98042.81;5026438;28;20025;-72
2023/11/24 11:02:55;;;;;;;5.13;1.10;;;;;;;6.20;100.00;98041.22;5030442;28;20215;-71
2023/11/24 11:05:38;;;;;;;5.95;0.95;;;;;;;6.28;100.00;98028.47;5044147;28;20029;-72
2023/11/24 11:08:34;;;;;;;1.73;0.70;;;;;;;6.47;100.00;98040.41;5045345;28;20033;-71
2023/11/24 11:11:06;;;;;;;2.97;0.85;;;;;;;6.82;100.00;98031.53;5044668;28;20033;-71
2023/11/24 11:13:35;;;;;;;5.10;1.17;;;;;;;7.42;100.00;98029.94;5045232;28;20093;-71
2023/11/24 11:16:04;;;;;;;6.00;0.88;;;;;;;8.40;100.00;98030.28;5025646;28;20077;-71
2023/11/24 11:18:31;;;;;;;3.80;0.95;;;;;;;8.06;100.00;98001.66;5045285;28;20025;-72
2023/11/24 11:20:56;;;;;;;9.45;1.60;;;;;;;8.08;100.00;97997.72;5038609;28;20032;-71
2023/11/24 11:23:25;;;;;;;10.68;2.28;;;;;;;8.17;100.00;97976.75;5027398;28;20053;-72
2023/11/24 11:25:53;;;;;;;10.80;2.15;;;;;;;8.22;100.00;97981.53;5028714;28;20068;-74
2023/11/24 11:28:19;;;;;;;8.25;1.63;;;;;;;8.18;100.00;97983.84;5039727;28;20029;-70
2023/11/24 11:30:49;;;;;;;9.63;1.77;;;;;;;8.16;100.00;97971.59;5026117;28;20025;-70
2023/11/24 11:33:19;;;;;;;7.90;1.27;;;;;;;7.94;100.00;97969.13;5042333;28;20021;-71
2023/11/24 11:35:45;;;;;;;6.45;1.33;;;;;;;7.82;100.00;97955.44;5044215;28;20025;-70